Time;durP1;ratioP1;P1;durP2;ratioP2;P2;SDS_P1;SDS_P2;PMS_P1;PMS_P2;Temp;Humidity;BMP_temperature;BMP_pressure;BME280_temperature;BME280_humidity;BME280_pressure;Samples;Min_cycle;Max_cycle;Signal;HPM_P1;HPM_P2
2021/01/17 00:00:15;;;;;;;39.20;17.65;;;;;;;-5.07;76.62;97365.59;4899727;29;20028;-81
2021/01/17 00:02:43;;;;;;;44.13;17.95;;;;;;;-5.14;76.52;97346.53;4919771;29;20414;-81
2021/01/17 00:05:17;;;;;;;37.20;15.48;;;;;;;-4.98;76.82;97356.00;4918330;29;20068;-82
2021/01/17 00:07:43;;;;;;;41.58;15.93;;;;;;;-5.02;77.50;97354.28;4917103;29;20047;-82
2021/01/17 00:10:14;;;;;;;76.78;30.13;;;;;;;-4.95;76.80;97369.00;4917036;29;20024;-80
2021/01/17 00:12:39;;;;;;;65.15;24.00;;;;;;;-4.97;76.19;97352.53;4948228;28;20155;-83
2021/01/17 00:15:10;;;;;;;65.85;23.70;;;;;;;-4.80;74.32;97359.41;4915302;29;20055;-82
2021/01/17 00:17:36;;;;;;;52.33;19.70;;;;;;;-4.74;74.12;97365.47;4901557;29;20508;-79
2021/01/17 00:20:13;;;;;;;34.95;15.77;;;;;;;-4.73;72.73;97372.38;4930207;29;20119;-79
2021/01/17 00:22:39;;;;;;;23.45;9.65;;;;;;;-4.81;71.58;97362.88;4938557;29;20036;-80
2021/01/17 00:25:06;;;;;;;18.38;7.65;;;;;;;-4.77;71.44;97360.25;4905867;29;20079;-80
2021/01/17 00:27:32;;;;;;;16.80;7.53;;;;;;;-4.81;71.72;97355.06;4945553;29;20035;-78
2021/01/17 00:29:57;;;;;;;15.32;6.70;;;;;;;-4.79;70.93;97348.94;4942253;29;20032;-78
2021/01/17 00:32:23;;;;;;;18.70;8.63;;;;;;;-4.73;70.68;97355.88;4922318;29;20461;-78
2021/01/17 00:34:49;;;;;;;25.40;9.80;;;;;;;-4.67;71.67;97361.06;4947565;29;20451;-78
2021/01/17 00:37:15;;;;;;;29.00;12.98;;;;;;;-4.80;73.10;97352.44;4934238;29;20036;-78
2021/01/17 00:39:41;;;;;;;31.33;13.73;;;;;;;-4.77;73.43;97354.16;4958632;28;20468;-78
2021/01/17 00:42:14;;;;;;;32.97;15.32;;;;;;;-4.68;73.78;97359.34;4931555;29;20035;-77
2021/01/17 00:44:41;;;;;;;36.10;13.15;;;;;;;-4.76;73.52;97348.94;4945538;29;20099;-78
2021/01/17 00:47:06;;;;;;;35.47;13.32;;;;;;;-4.62;72.83;97354.97;4912429;29;20036;-80
2021/01/17 00:49:32;;;;;;;30.30;12.45;;;;;;;-4.60;73.03;97347.09;4940568;29;20087;-77
2021/01/17 00:51:58;;;;;;;28.45;11.07;;;;;;;-4.58;73.26;97355.78;4930062;29;20091;-78
2021/01/17 00:54:24;;;;;;;30.95;12.80;;;;;;;-4.62;72.93;97351.47;4908028;29;20046;-77
2021/01/17 00:56:49;;;;;;;35.58;13.88;;;;;;;-4.57;73.65;97341.88;4911156;29;20043;-77
2021/01/17 00:59:15;;;;;;;24.67;10.68;;;;;;;-4.61;72.04;97347.97;4940878;29;20039;-77
2021/01/17 01:01:46;;;;;;;29.30;12.60;;;;;;;-4.65;72.02;97341.06;4924955;29;20036;-77
2021/01/17 01:04:14;;;;;;;33.33;13.65;;;;;;;-4.56;70.53;97351.44;4914373;29;20031;-77
2021/01/17 01:06:40;;;;;;;43.40;19.85;;;;;;;-4.67;70.89;97340.19;4930779;29;20047;-77
2021/01/17 01:09:11;;;;;;;31.83;13.55;;;;;;;-4.52;70.08;97346.16;4921551;29;20032;-78
2021/01/17 01:11:38;;;;;;;28.38;11.20;;;;;;;-4.48;70.82;97336.59;4937995;29;20527;-78
2021/01/17 01:14:05;;;;;;;31.67;13.25;;;;;;;-4.46;70.16;97353.13;4916535;29;20059;-78
2021/01/17 01:16:30;;;;;;;36.22;13.07;;;;;;;-4.66;72.04;97344.53;4907964;29;20031;-77
2021/01/17 01:18:56;;;;;;;26.50;11.63;;;;;;;-4.69;74.02;97347.16;4924517;29;20106;-77
2021/01/17 01:21:32;;;;;;;29.13;12.93;;;;;;;-4.72;75.46;97347.19;4916358;29;20039;-77
2021/01/17 01:23:58;;;;;;;32.13;12.48;;;;;;;-4.65;77.28;97360.19;4919806;29;20405;-78
2021/01/17 01:26:24;;;;;;;26.48;12.10;;;;;;;-4.69;76.06;97352.38;4914501;29;20032;-78
2021/01/17 01:28:52;;;;;;;29.15;12.48;;;;;;;-4.59;75.91;97349.72;4911999;29;20027;-78
2021/01/17 01:31:22;;;;;;;27.40;12.00;;;;;;;-4.61;74.24;97337.53;4910828;29;20035;-78
2021/01/17 01:33:48;;;;;;;20.77;9.10;;;;;;;-4.49;74.19;97356.59;4935906;29;20468;-78
2021/01/17 01:36:33;;;;;;;18.35;8.85;;;;;;;-4.45;72.66;97353.09;4937326;29;20027;-78
2021/01/17 01:38:59;;;;;;;23.35;10.52;;;;;;;-4.48;73.81;97347.91;4947798;29;20031;-77
2021/01/17 01:41:33;;;;;;;27.92;11.50;;;;;;;-4.47;72.88;97344.41;4916229;29;20039;-77
2021/01/17 01:43:58;;;;;;;37.08;14.15;;;;;;;-4.51;72.71;97347.91;4950506;29;20595;-79
2021/01/17 01:46:25;;;;;;;36.15;14.60;;;;;;;-4.41;72.32;97352.22;4935889;29;20059;-78
2021/01/17 01:48:53;;;;;;;27.15;11.45;;;;;;;-4.50;73.59;97344.44;4914569;29;20032;-80
2021/01/17 01:51:19;;;;;;;22.95;10.00;;;;;;;-4.70;75.07;97350.63;4916485;29;20039;-78
2021/01/17 01:53:45;;;;;;;16.23;7.40;;;;;;;-4.78;74.38;97342.00;4936021;29;20126;-78
2021/01/17 01:56:13;;;;;;;18.02;7.18;;;;;;;-4.74;74.69;97338.50;4936225;29;20419;-77
2021/01/17 01:58:39;;;;;;;16.10;7.32;;;;;;;-4.74;74.04;97333.28;4926743;29;20031;-78
2021/01/17 02:01:06;;;;;;;16.00;7.35;;;;;;;-4.72;75.23;97349.78;4930450;29;20035;-79
2021/01/17 02:03:31;;;;;;;18.67;7.40;;;;;;;-4.79;74.49;97335.03;4927401;29;20032;-79
2021/01/17 02:05:57;;;;;;;19.77;7.55;;;;;;;-4.92;74.23;97332.50;4945243;29;20111;-78
2021/01/17 02:08:50;;;;;;;23.10;8.50;;;;;;;-4.93;73.96;97341.22;4922836;29;20082;-78
2021/01/17 02:11:18;;;;;;;27.20;10.75;;;;;;;-5.10;76.03;97337.81;4945793;29;20031;-78
2021/01/17 02:13:49;;;;;;;34.42;14.40;;;;;;;-5.28;78.73;97330.06;4924978;29;20040;-78
2021/01/17 02:16:14;;;;;;;34.42;13.70;;;;;;;-5.40;79.72;97327.50;4927880;29;20042;-78
2021/01/17 02:18:41;;;;;;;33.97;14.75;;;;;;;-5.41;79.96;97328.38;4927476;29;20036;-78
2021/01/17 02:21:08;;;;;;;36.15;14.85;;;;;;;-5.55;79.79;97320.63;4923225;29;20523;-78
2021/01/17 02:23:43;;;;;;;35.92;15.18;;;;;;;-5.49;82.31;97332.75;4938048;29;20070;-78
2021/01/17 02:26:08;;;;;;;33.20;13.38;;;;;;;-5.64;82.85;97318.03;4960060;28;20043;-78
2021/01/17 02:28:34;;;;;;;30.02;13.18;;;;;;;-5.71;83.87;97325.84;4926133;29;20032;-78
2021/01/17 02:31:01;;;;;;;32.83;13.75;;;;;;;-5.74;83.45;97318.91;4950964;29;20042;-78
2021/01/17 02:33:32;;;;;;;29.13;12.93;;;;;;;-5.80;84.26;97329.34;4913028;29;20031;-77
2021/01/17 02:36:04;;;;;;;28.60;12.70;;;;;;;-5.80;84.43;97333.69;4926950;29;20478;-78
2021/01/17 02:38:52;;;;;;;37.90;15.90;;;;;;;-5.89;85.43;97320.72;4911308;29;20132;-78
2021/01/17 02:41:29;;;;;;;35.65;14.82;;;;;;;-6.02;86.53;97327.69;4928673;29;20073;-78
2021/01/17 02:43:54;;;;;;;37.38;15.68;;;;;;;-5.97;87.07;97338.09;4939852;29;20023;-78
2021/01/17 02:46:20;;;;;;;46.13;18.55;;;;;;;-6.01;85.65;97333.75;4925809;29;20424;-78
2021/01/17 02:48:46;;;;;;;52.13;19.08;;;;;;;-5.98;85.43;97344.16;4918183;29;20522;-78
2021/01/17 02:51:11;;;;;;;47.25;18.20;;;;;;;-5.96;86.23;97337.22;4934167;29;20028;-78
2021/01/17 02:53:56;;;;;;;51.58;17.88;;;;;;;-5.97;85.70;97331.16;4923816;29;20043;-79
2021/01/17 02:56:24;;;;;;;62.88;23.35;;;;;;;-5.99;84.73;97347.63;4929780;29;20150;-78
2021/01/17 02:58:50;;;;;;;94.30;28.33;;;;;;;-6.10;84.31;97330.31;4942522;29;20038;-78
2021/01/17 03:01:21;;;;;;;49.75;15.95;;;;;;;-6.18;82.71;97339.81;4912991;29;20023;-77
2021/01/17 03:03:47;;;;;;;55.72;23.23;;;;;;;-6.25;82.39;97335.53;4916630;29;20035;-77
2021/01/17 03:06:14;;;;;;;71.57;26.15;;;;;;;-6.21;82.84;97342.44;4918168;29;20037;-78
2021/01/17 03:08:40;;;;;;;53.08;22.00;;;;;;;-6.26;82.21;97328.56;4904940;29;20035;-77
2021/01/17 03:11:06;;;;;;;28.67;11.77;;;;;;;-6.28;80.38;97319.91;4924878;29;20036;-78
2021/01/17 03:13:35;;;;;;;30.45;12.75;;;;;;;-6.28;81.99;97316.44;4937580;29;20496;-78
2021/01/17 03:16:01;;;;;;;68.75;22.88;;;;;;;-6.39;80.75;97318.16;4923391;29;20047;-78
2021/01/17 03:18:27;;;;;;;36.90;13.70;;;;;;;-6.40;79.97;97306.91;4918546;29;20031;-78
2021/01/17 03:20:52;;;;;;;28.40;10.05;;;;;;;-6.32;76.85;97315.56;4924723;29;20028;-78
2021/01/17 03:23:18;;;;;;;11.75;6.50;;;;;;;-6.42;76.72;97302.53;4933247;29;20059;-78
2021/01/17 03:25:44;;;;;;;85.18;31.58;;;;;;;-6.57;76.41;97316.41;4929782;29;20031;-78
2021/01/17 03:28:09;;;;;;;43.92;17.42;;;;;;;-6.61;76.07;97310.34;4917743;29;20526;-78
2021/01/17 03:30:35;;;;;;;14.38;6.13;;;;;;;-6.67;75.58;97312.06;4918195;29;20491;-78
2021/01/17 03:33:00;;;;;;;11.35;5.78;;;;;;;-6.69;75.01;97321.59;4933725;29;20039;-78
2021/01/17 03:35:26;;;;;;;15.07;6.28;;;;;;;-6.68;74.29;97311.22;4933694;29;20024;-77
2021/01/17 03:37:52;;;;;;;11.15;4.88;;;;;;;-6.65;75.43;97315.56;4926995;29;20551;-79
2021/01/17 03:40:17;;;;;;;8.45;4.40;;;;;;;-6.80;74.80;97295.56;4940268;29;20027;-77
2021/01/17 03:42:43;;;;;;;8.40;4.57;;;;;;;-6.75;76.54;97298.19;4949593;29;20091;-77
2021/01/17 03:45:09;;;;;;;8.57;4.22;;;;;;;-6.78;74.24;97298.19;4922538;29;20028;-79
2021/01/17 03:47:34;;;;;;;10.40;4.88;;;;;;;-6.76;73.87;97299.06;4931631;29;20512;-76
2021/01/17 03:50:00;;;;;;;16.90;5.65;;;;;;;-6.72;76.25;97298.19;4922435;29;20043;-77
2021/01/17 03:52:25;;;;;;;22.63;7.82;;;;;;;-6.93;80.49;97296.44;4929080;29;20071;-77
2021/01/17 03:54:51;;;;;;;19.70;7.53;;;;;;;-6.86;83.66;97310.31;4923062;29;20032;-77
2021/01/17 03:57:16;;;;;;;17.38;8.07;;;;;;;-6.83;83.28;97305.97;4924656;29;20115;-77
2021/01/17 03:59:42;;;;;;;21.13;8.02;;;;;;;-6.81;84.58;97306.00;4929540;29;20027;-77
2021/01/17 04:02:07;;;;;;;24.25;10.15;;;;;;;-6.80;84.56;97305.13;4930900;29;20031;-78
2021/01/17 04:04:33;;;;;;;23.80;9.77;;;;;;;-6.80;85.26;97308.56;4913635;29;20118;-77
2021/01/17 04:06:59;;;;;;;21.95;9.90;;;;;;;-6.77;84.90;97302.53;4933385;29;20019;-77
2021/01/17 04:09:24;;;;;;;21.80;9.32;;;;;;;-6.75;86.31;97313.78;4946024;29;20111;-78
2021/01/17 04:11:50;;;;;;;20.02;9.60;;;;;;;-6.82;85.21;97319.84;4928826;29;20497;-78
2021/01/17 04:14:16;;;;;;;23.05;9.13;;;;;;;-6.86;85.56;97323.31;4933923;29;20028;-78
2021/01/17 04:16:52;;;;;;;23.65;9.57;;;;;;;-6.80;86.15;97325.94;4916829;29;20038;-78
2021/01/17 04:19:19;;;;;;;19.38;9.52;;;;;;;-6.82;86.06;97325.03;4932007;29;20095;-78
2021/01/17 04:21:45;;;;;;;26.23;10.48;;;;;;;-6.78;86.16;97319.00;4932212;29;20035;-77
2021/01/17 04:24:10;;;;;;;27.35;12.75;;;;;;;-6.72;86.18;97322.47;4922621;29;20478;-77
2021/01/17 04:26:36;;;;;;;37.03;13.30;;;;;;;-6.77;87.44;97328.53;4921937;29;20073;-77
2021/01/17 04:29:02;;;;;;;39.45;15.18;;;;;;;-6.72;87.39;97329.41;4931713;29;20032;-77
2021/01/17 04:31:27;;;;;;;38.80;16.25;;;;;;;-6.67;87.19;97336.34;4915310;29;20028;-77
2021/01/17 04:33:53;;;;;;;43.97;16.77;;;;;;;-6.61;87.21;97330.28;4913409;29;20039;-77
2021/01/17 04:36:18;;;;;;;42.42;17.35;;;;;;;-6.48;86.07;97332.03;4915333;29;20412;-77
2021/01/17 04:38:44;;;;;;;48.53;19.05;;;;;;;-6.47;85.93;97336.38;4920020;29;20045;-77
2021/01/17 04:41:13;;;;;;;47.00;18.02;;;;;;;-6.51;85.57;97331.16;4921940;29;20035;-78
2021/01/17 04:43:57;;;;;;;43.72;16.02;;;;;;;-6.47;85.47;97341.56;4914170;29;20519;-77
2021/01/17 04:46:25;;;;;;;42.65;15.88;;;;;;;-6.45;85.10;97342.44;4924470;29;20472;-78
2021/01/17 04:49:00;;;;;;;42.80;17.38;;;;;;;-6.51;84.61;97347.63;4921913;29;20424;-77
2021/01/17 04:51:27;;;;;;;43.20;16.88;;;;;;;-6.35;83.99;97357.19;4914519;29;20028;-77
2021/01/17 04:53:53;;;;;;;28.48;11.32;;;;;;;-6.28;81.78;97356.31;4909061;29;20024;-78
2021/01/17 04:56:29;;;;;;;25.15;9.93;;;;;;;-6.35;81.04;97365.00;4929998;29;20393;-77
2021/01/17 04:59:10;;;;;;;36.05;15.45;;;;;;;-6.51;83.34;97350.22;4946145;29;20027;-79
2021/01/17 05:01:59;;;;;;;30.07;12.80;;;;;;;-6.59;83.73;97338.97;4929402;29;20123;-77
2021/01/17 05:04:37;;;;;;;24.42;10.18;;;;;;;-6.43;81.85;97360.66;4927462;29;20746;-77
2021/01/17 05:07:16;;;;;;;27.20;10.25;;;;;;;-6.57;81.17;97363.22;4924634;29;20036;-77
2021/01/17 05:09:54;;;;;;;23.10;10.02;;;;;;;-6.64;84.77;97366.66;4942627;29;20028;-77
2021/01/17 05:12:28;;;;;;;35.47;12.93;;;;;;;-6.63;84.98;97366.69;4919591;29;20091;-77
2021/01/17 05:14:57;;;;;;;35.78;14.93;;;;;;;-6.78;86.62;97369.25;4913955;29;20036;-78
2021/01/17 05:17:24;;;;;;;32.67;13.02;;;;;;;-6.76;87.02;97371.84;4952620;28;21113;-78
2021/01/17 05:19:50;;;;;;;32.15;13.35;;;;;;;-6.89;87.52;97365.75;4915346;29;20107;-77
2021/01/17 05:22:19;;;;;;;28.45;12.48;;;;;;;-6.85;88.24;97369.22;4926580;29;20134;-79
2021/01/17 05:24:45;;;;;;;30.63;12.40;;;;;;;-6.91;88.18;97369.19;4912771;29;20070;-77
2021/01/17 05:27:11;;;;;;;25.50;11.50;;;;;;;-6.96;88.97;97368.34;4919033;29;20028;-77
2021/01/17 05:29:37;;;;;;;26.88;12.18;;;;;;;-6.90;88.47;97363.16;4905190;29;20035;-77
2021/01/17 05:32:04;;;;;;;30.63;13.07;;;;;;;-6.94;89.11;97367.47;4935708;28;20032;-77
2021/01/17 05:34:31;;;;;;;30.83;12.07;;;;;;;-7.01;89.27;97368.31;4931353;29;20035;-77
2021/01/17 05:37:05;;;;;;;26.05;12.32;;;;;;;-7.10;90.11;97364.84;4923786;29;20032;-80
2021/01/17 05:39:32;;;;;;;26.80;10.90;;;;;;;-7.03;90.04;97362.25;4937391;29;20098;-78
2021/01/17 05:42:05;;;;;;;26.00;11.13;;;;;;;-7.16;89.65;97355.25;4917809;29;20507;-78
2021/01/17 05:44:31;;;;;;;22.77;10.65;;;;;;;-7.18;90.55;97360.47;4920534;29;20031;-79
2021/01/17 05:47:04;;;;;;;27.35;12.13;;;;;;;-7.14;90.80;97351.81;4913357;29;20024;-79
2021/01/17 05:49:30;;;;;;;70.00;27.00;;;;;;;-7.10;91.07;97351.84;4926275;29;20523;-77
2021/01/17 05:52:12;;;;;;;33.72;12.73;;;;;;;-6.90;90.60;97357.94;4959707;28;20032;-77
2021/01/17 05:54:38;;;;;;;;;;;;;;;-6.85;90.00;97357.09;4904998;29;20038;-77
2021/01/17 05:57:17;;;;;;;27.30;9.80;;;;;;;-6.90;89.01;97347.56;4933564;29;20359;-79
2021/01/17 05:59:43;;;;;;;18.63;8.80;;;;;;;-6.83;87.08;97350.16;4957542;28;20024;-77
2021/01/17 06:02:19;;;;;;;28.13;12.18;;;;;;;-6.79;88.08;97351.03;4943327;28;20058;-77
2021/01/17 06:05:03;;;;;;;32.88;13.25;;;;;;;-6.78;88.72;97355.38;4926482;29;20032;-78
2021/01/17 06:07:31;;;;;;;27.25;11.60;;;;;;;-6.81;88.05;97352.78;4941967;29;20043;-76
2021/01/17 06:10:07;;;;;;;21.42;10.23;;;;;;;-6.77;87.29;97355.41;4916586;29;20053;-78
2021/01/17 06:12:33;;;;;;;25.08;11.05;;;;;;;-6.63;86.23;97355.41;4935398;28;20115;-79
2021/01/17 06:15:05;;;;;;;36.80;16.48;;;;;;;-6.65;86.41;97357.16;4926299;29;20031;-78
2021/01/17 06:17:32;;;;;;;;;;;;;;;-6.65;84.58;97359.75;4928451;29;20036;-78
2021/01/17 06:20:00;;;;;;;36.92;16.00;;;;;;;-6.50;86.51;97356.31;4944135;28;19918;-75
2021/01/17 06:22:25;;;;;;;69.50;24.77;;;;;;;-6.53;85.21;97367.56;4925932;29;20059;-82
2021/01/17 06:24:58;;;;;;;82.35;28.88;;;;;;;-6.42;84.37;97368.44;4925558;29;20059;-83
2021/01/17 06:27:26;;;;;;;342.30;135.32;;;;;;;-6.25;82.39;97360.66;4949054;29;20036;-80
2021/01/17 06:29:51;;;;;;;78.05;30.33;;;;;;;-6.13;81.00;97360.66;4942401;29;20036;-80
2021/01/17 06:32:19;;;;;;;66.70;26.05;;;;;;;-6.03;79.81;97369.34;4925026;29;20393;-81
2021/01/17 06:34:50;;;;;;;72.13;28.83;;;;;;;-6.05;80.69;97353.69;4904934;29;20035;-82
2021/01/17 06:37:18;;;;;;;89.50;32.70;;;;;;;-5.90;80.77;97368.44;4929028;29;20086;-80
2021/01/17 06:39:48;;;;;;;93.18;36.92;;;;;;;-5.84;80.36;97378.81;4942282;29;20036;-80
2021/01/17 06:42:14;;;;;;;50.90;20.15;;;;;;;-5.77;78.42;97378.81;4912214;29;20408;-80
2021/01/17 06:44:40;;;;;;;55.03;21.75;;;;;;;-5.73;77.78;97377.06;4904386;29;20039;-81
2021/01/17 06:47:17;;;;;;;61.45;24.30;;;;;;;-5.67;77.85;97367.53;4921622;29;20552;-83
2021/01/17 06:49:42;;;;;;;43.53;15.98;;;;;;;-5.64;79.69;97377.94;4926800;29;20047;-81
2021/01/17 06:52:08;;;;;;;31.85;12.88;;;;;;;-5.58;78.43;97369.25;4934892;29;20032;-82
2021/01/17 06:54:43;;;;;;;23.83;9.68;;;;;;;-5.47;75.98;97371.84;4924525;29;20056;-80
2021/01/17 06:57:09;;;;;;;34.88;14.68;;;;;;;-5.44;76.97;97370.06;4951552;29;20097;-81
2021/01/17 06:59:44;;;;;;;21.40;9.65;;;;;;;-5.34;75.02;97377.00;4905985;28;20031;-82
2021/01/17 07:02:45;;;;;;;23.77;9.35;;;;;;;-5.25;73.45;97371.75;4931444;29;20070;-80
2021/01/17 07:05:34;;;;;;;33.28;10.40;;;;;;;-4.61;73.72;97350.56;4925604;29;20070;-77
2021/01/17 07:08:21;;;;;;;29.92;11.15;;;;;;;-3.59;71.47;97377.63;4921424;29;20032;-78
2021/01/17 07:11:19;;;;;;;35.35;15.32;;;;;;;-4.07;69.93;97292.75;4959229;28;20062;-81
2021/01/17 07:14:07;;;;;;;42.13;18.85;;;;;;;-3.31;69.29;97375.59;4914093;29;20035;-81
2021/01/17 07:16:38;;;;;;;39.03;17.30;;;;;;;-3.14;66.97;97315.28;4932164;29;20040;-83
2021/01/17 07:19:07;;;;;;;39.42;17.58;;;;;;;-2.38;65.41;97373.56;4927930;29;20030;-82
2021/01/17 07:21:39;;;;;;;39.15;17.55;;;;;;;-1.84;61.38;97342.16;4913323;29;20036;-82
2021/01/17 07:24:07;;;;;;;40.50;15.40;;;;;;;-1.62;61.83;97372.38;4923178;29;20055;-81
2021/01/17 07:26:48;;;;;;;36.75;16.30;;;;;;;-2.30;62.81;97344.63;4925939;29;20039;-81
2021/01/17 07:29:34;;;;;;;38.92;16.67;;;;;;;-2.81;65.18;97364.56;4923351;29;20059;-76
2021/01/17 07:32:00;;;;;;;39.05;16.83;;;;;;;-3.26;66.09;97379.03;4938307;29;20412;-81
2021/01/17 07:34:30;;;;;;;57.53;23.08;;;;;;;-3.51;66.81;97383.66;4946006;29;20028;-81
2021/01/17 07:36:59;;;;;;;87.97;30.10;;;;;;;-2.94;66.47;97382.16;4960883;28;20027;-82
2021/01/17 07:39:27;;;;;;;115.75;32.10;;;;;;;-1.67;61.98;97374.22;4922779;29;20038;-81
2021/01/17 07:41:53;;;;;;;85.65;31.42;;;;;;;-0.65;58.85;97371.38;4922432;29;20091;-81
2021/01/17 07:44:20;;;;;;;92.47;37.88;;;;;;;0.81;53.88;97383.69;4936806;29;20035;-82
2021/01/17 07:46:46;;;;;;;186.50;77.85;;;;;;;1.34;51.55;97369.03;4944614;29;20028;-82
2021/01/17 07:49:13;;;;;;;590.25;270.50;;;;;;;2.64;48.14;97375.53;4932634;29;20059;-82
2021/01/17 07:51:40;;;;;;;355.88;163.68;;;;;;;2.64;46.75;97373.75;4924291;29;20024;-83
2021/01/17 07:54:17;;;;;;;251.13;108.72;;;;;;;2.54;48.17;97379.38;4921539;29;20032;-82
2021/01/17 07:56:43;;;;;;;114.78;50.95;;;;;;;2.96;46.42;97384.97;4930899;29;20100;-81
2021/01/17 07:59:09;;;;;;;115.68;51.03;;;;;;;3.24;45.23;97388.38;4907497;29;20027;-80
2021/01/17 08:01:38;;;;;;;110.28;51.42;;;;;;;3.22;44.08;97385.81;4940622;29;20111;-82
2021/01/17 08:04:04;;;;;;;117.50;58.08;;;;;;;3.04;43.63;97388.22;4925813;29;20492;-81
2021/01/17 08:06:36;;;;;;;93.70;43.17;;;;;;;2.82;44.23;97390.75;4921813;29;20058;-81
2021/01/17 08:09:17;;;;;;;72.43;36.75;;;;;;;3.27;42.73;97393.53;4923582;29;20107;-80
2021/01/17 08:12:00;;;;;;;74.28;33.33;;;;;;;3.50;44.01;97398.03;4923812;29;20059;-81
2021/01/17 08:14:36;;;;;;;81.15;40.60;;;;;;;2.67;43.41;97389.50;4925513;29;20037;-76
2021/01/17 08:17:20;;;;;;;83.80;34.65;;;;;;;1.88;44.16;97392.91;4941529;29;20111;-76
2021/01/17 08:19:58;;;;;;;98.15;45.78;;;;;;;3.22;43.27;97400.78;4929517;29;20420;-77
2021/01/17 08:22:23;;;;;;;131.23;61.47;;;;;;;3.66;43.84;97402.66;4926701;29;20035;-76
2021/01/17 08:24:54;;;;;;;132.45;62.22;;;;;;;4.27;43.12;97401.22;4923559;29;20052;-76
2021/01/17 08:27:35;;;;;;;93.80;43.78;;;;;;;5.01;39.29;97391.97;4918856;29;20123;-75
2021/01/17 08:30:03;;;;;;;78.28;39.40;;;;;;;5.12;40.32;97397.66;4927984;29;20028;-75
2021/01/17 08:32:38;;;;;;;89.95;43.58;;;;;;;4.18;42.65;97411.28;4921588;29;20027;-76
2021/01/17 08:35:24;;;;;;;71.45;36.10;;;;;;;4.53;40.04;97408.09;4924007;29;20031;-76
2021/01/17 08:37:54;;;;;;;66.80;31.73;;;;;;;3.89;41.51;97408.88;4923282;29;20039;-76
2021/01/17 08:40:29;;;;;;;67.93;32.92;;;;;;;4.42;42.03;97409.47;4921007;29;20035;-78
2021/01/17 08:43:09;;;;;;;68.78;32.85;;;;;;;4.97;40.46;97400.97;4920403;29;20032;-75
2021/01/17 08:45:45;;;;;;;85.55;40.78;;;;;;;5.27;38.69;97407.63;4921769;29;20423;-75
2021/01/17 08:48:17;;;;;;;85.22;39.17;;;;;;;5.29;39.36;97413.69;4931134;29;20043;-75
2021/01/17 08:50:47;;;;;;;70.63;34.33;;;;;;;5.35;37.88;97412.59;4922946;29;20046;-76
2021/01/17 08:53:13;;;;;;;68.32;32.42;;;;;;;6.51;39.32;97423.16;4930743;29;20090;-74
2021/01/17 08:55:42;;;;;;;67.18;32.63;;;;;;;7.23;34.18;97417.78;4920275;29;20404;-82
2021/01/17 08:58:09;;;;;;;58.72;30.13;;;;;;;7.02;33.27;97401.13;4921251;29;20036;-82
2021/01/17 09:01:02;;;;;;;58.25;28.80;;;;;;;7.04;33.75;97412.53;4930228;29;20031;-84
2021/01/17 09:03:36;;;;;;;55.90;27.48;;;;;;;6.60;34.55;97410.38;4928884;29;20114;-85
2021/01/17 09:06:12;;;;;;;40.10;20.65;;;;;;;4.99;35.60;97396.47;4943646;29;20036;-81
2021/01/17 09:09:03;;;;;;;63.15;27.27;;;;;;;5.41;36.80;97414.97;4923634;29;20087;-83
2021/01/17 09:11:28;;;;;;;33.85;17.67;;;;;;;6.12;33.57;97397.63;4909111;29;20087;-83
2021/01/17 09:14:12;;;;;;;41.30;20.05;;;;;;;6.09;34.27;97397.78;4922804;29;20032;-82
2021/01/17 09:16:43;;;;;;;27.23;13.60;;;;;;;6.20;34.36;97382.19;4924193;28;20035;-82
2021/01/17 09:19:09;;;;;;;29.75;11.30;;;;;;;6.46;32.88;97381.81;4929818;29;20040;-83
2021/01/17 09:21:35;;;;;;;21.10;9.43;;;;;;;5.16;35.08;97387.81;4943377;29;20110;-82
2021/01/17 09:24:22;;;;;;;22.88;11.48;;;;;;;6.43;34.74;97380.16;4923972;29;20063;-82
2021/01/17 09:26:50;;;;;;;19.30;8.95;;;;;;;6.87;32.03;97375.31;4901640;29;20028;-82
2021/01/17 09:29:20;;;;;;;16.63;9.05;;;;;;;6.99;31.99;97377.34;4923510;29;20091;-83
2021/01/17 09:31:53;;;;;;;15.48;6.97;;;;;;;5.99;33.27;97362.84;4923466;29;20087;-83
2021/01/17 09:34:29;;;;;;;18.27;7.65;;;;;;;6.00;32.97;97373.34;4929907;29;20024;-83
2021/01/17 09:37:08;;;;;;;24.25;10.30;;;;;;;6.72;33.97;97378.75;4949560;28;20472;-84
2021/01/17 09:39:38;;;;;;;33.92;16.17;;;;;;;7.29;32.15;97385.56;4945724;29;20481;-83
2021/01/17 09:42:06;;;;;;;18.58;8.93;;;;;;;7.27;32.50;97366.16;4936390;29;20780;-82
2021/01/17 09:44:32;;;;;;;28.92;9.40;;;;;;;7.50;31.87;97357.88;4940082;28;20024;-83
2021/01/17 09:46:59;;;;;;;18.90;8.45;;;;;;;7.84;28.27;97343.59;4933601;29;20031;-82
2021/01/17 09:49:27;;;;;;;22.48;11.32;;;;;;;8.25;29.80;97327.13;4956565;28;20550;-82
2021/01/17 09:51:53;;;;;;;18.67;8.55;;;;;;;7.22;30.58;97351.41;4915132;29;20028;-82
2021/01/17 09:54:19;;;;;;;22.35;8.98;;;;;;;5.68;32.72;97328.84;4952904;29;20027;-82
2021/01/17 09:56:45;;;;;;;29.13;12.75;;;;;;;4.61;33.65;97341.59;4945635;29;20412;-83
2021/01/17 09:59:19;;;;;;;22.83;11.52;;;;;;;4.02;34.38;97336.06;4920589;29;20071;-82
2021/01/17 10:01:46;;;;;;;29.85;12.85;;;;;;;4.15;34.42;97353.19;4938212;29;20032;-83
2021/01/17 10:04:22;;;;;;;12.98;6.93;;;;;;;2.49;36.68;97353.13;4915978;29;20579;-81
2021/01/17 10:06:50;;;;;;;16.60;8.15;;;;;;;2.17;37.79;97348.03;4936245;29;20119;-82
2021/01/17 10:09:18;;;;;;;28.23;12.52;;;;;;;2.18;39.33;97355.06;4923126;29;20038;-82
2021/01/17 10:12:01;;;;;;;19.77;9.77;;;;;;;1.85;39.24;97345.53;4912784;29;20035;-81
2021/01/17 10:14:47;;;;;;;20.77;10.63;;;;;;;0.78;40.23;97344.28;4971775;28;20028;-81
2021/01/17 10:17:19;;;;;;;19.88;8.63;;;;;;;0.90;40.78;97342.19;4887499;29;20044;-81
2021/01/17 10:20:39;;;;;;;20.05;9.07;;;;;;;0.86;41.51;97364.22;4872392;29;20039;-80
2021/01/17 10:23:46;;;;;;;;;;;;;;;;;;;;;
2021/01/17 10:33:09;;;;;;;13.30;6.15;;;;;;;-0.40;41.94;97260.53;4844524;29;20073;-80
2021/01/17 10:35:44;;;;;;;26.58;11.52;;;;;;;0.02;41.65;97295.41;4845000;29;20230;-80
2021/01/17 10:38:20;;;;;;;15.18;7.72;;;;;;;0.29;41.65;97321.88;4851508;29;20049;-80
2021/01/17 10:40:47;;;;;;;24.13;11.88;;;;;;;0.17;42.33;97306.41;4876991;29;20048;-80
2021/01/17 10:43:27;;;;;;;25.95;9.57;;;;;;;0.61;41.51;97310.53;4902650;29;20549;-81
2021/01/17 10:46:33;;;;;;;;;;;;;;;;;;;;;
2021/01/17 10:50:13;;;;;;;;;;;;;;;;;;;;;
2021/01/17 10:53:20;;;;;;;;;;;;;;;;;;;;;
2021/01/17 10:56:38;;;;;;;14.15;6.57;;;;;;;-0.23;42.07;97300.41;4928748;29;20154;-80
2021/01/17 11:02:50;;;;;;;;;;;;;;;;;;;;;
2021/01/17 11:06:08;;;;;;;;;;;;;;;;;;;;;
2021/01/17 11:09:27;;;;;;;25.05;9.80;;;;;;;-0.16;43.09;97296.72;4834746;29;20099;-80
2021/01/17 11:12:44;;;;;;;;;;;;;;;;;;;;;
2021/01/17 11:15:36;;;;;;;40.88;16.83;;;;;;;1.98;39.98;97328.44;4903636;29;20176;-80
2021/01/17 11:18:01;;;;;;;18.40;9.83;;;;;;;2.81;39.56;97320.34;4894591;29;20044;-79
2021/01/17 11:20:36;;;;;;;24.60;10.60;;;;;;;3.76;37.55;97316.78;4922530;29;20046;-81
2021/01/17 11:23:03;;;;;;;19.98;9.60;;;;;;;3.98;36.29;97308.88;4919762;29;20400;-80
2021/01/17 11:25:30;;;;;;;36.75;13.20;;;;;;;5.15;34.91;97307.41;4934830;29;20571;-80
2021/01/17 11:27:57;;;;;;;29.98;9.68;;;;;;;5.42;34.56;97303.50;4906455;29;20118;-80
2021/01/17 11:30:27;;;;;;;26.95;13.27;;;;;;;4.65;34.08;97291.06;4958087;28;20039;-79
2021/01/17 11:33:06;;;;;;;16.25;8.68;;;;;;;4.23;34.98;97304.31;4930545;29;20042;-79
2021/01/17 11:35:31;;;;;;;28.40;14.10;;;;;;;4.02;35.19;97296.38;4950816;28;20489;-80
2021/01/17 11:37:57;;;;;;;29.83;12.35;;;;;;;3.65;36.56;97294.31;4914108;29;20032;-80
2021/01/17 11:40:23;;;;;;;28.45;14.18;;;;;;;3.31;37.81;97297.38;4917972;29;20534;-75
2021/01/17 11:42:49;;;;;;;34.67;15.95;;;;;;;2.81;38.25;97308.91;4949880;29;20122;-76
2021/01/17 11:45:16;;;;;;;36.38;15.90;;;;;;;2.21;40.20;97309.22;4925326;29;20547;-76
2021/01/17 11:47:43;;;;;;;24.00;11.30;;;;;;;1.74;39.97;97302.84;4921120;29;20064;-76
2021/01/17 11:50:18;;;;;;;25.40;12.05;;;;;;;1.87;39.97;97307.69;4938100;29;20032;-78
2021/01/17 11:53:03;;;;;;;35.58;15.23;;;;;;;3.21;37.31;97311.84;4924496;29;20052;-76
2021/01/17 11:55:29;;;;;;;20.40;10.40;;;;;;;3.60;36.26;97289.19;4936986;29;20035;-76
2021/01/17 11:58:07;;;;;;;21.30;8.20;;;;;;;4.02;35.56;97286.66;4937352;29;20102;-76
2021/01/17 12:00:33;;;;;;;38.10;16.42;;;;;;;4.22;35.07;97286.69;4922516;29;20096;-77
2021/01/17 12:02:58;;;;;;;37.70;17.85;;;;;;;4.31;34.18;97280.16;4920435;29;20521;-75